Time;durP1;ratioP1;P1;durP2;ratioP2;P2;SDS_P1;SDS_P2;PMS_P1;PMS_P2;Temp;Humidity;BMP_temperature;BMP_pressure;BME280_temperature;BME280_humidity;BME280_pressure;Samples;Min_cycle;Max_cycle;Signal;HPM_P1;HPM_P2
2023/11/20 00:02:10;;;;;;;0.30;0.10;;;;;;;10.50;100.00;99828.56;4999577;28;20040;-80
2023/11/20 00:04:37;;;;;;;0.10;0.10;;;;;;;10.54;100.00;99826.75;4995356;28;20046;-79
2023/11/20 00:07:05;;;;;;;1.27;0.13;;;;;;;10.62;100.00;99816.13;4984993;28;20460;-78
2023/11/20 00:09:32;;;;;;;0.13;0.10;;;;;;;10.63;100.00;99816.06;4981995;28;20528;-83
2023/11/20 00:11:59;;;;;;;0.10;0.10;;;;;;;10.67;100.00;99822.09;4995656;28;20053;-80
2023/11/20 00:14:26;;;;;;;2.45;0.10;;;;;;;10.65;100.00;99810.81;5007049;28;20077;-78
2023/11/20 00:16:52;;;;;;;0.13;0.13;;;;;;;10.69;100.00;99825.53;4978036;28;20651;-78
2023/11/20 00:19:20;;;;;;;0.13;0.13;;;;;;;10.63;100.00;99818.69;4992997;28;20058;-78
2023/11/20 00:21:46;;;;;;;0.65;0.10;;;;;;;10.67;100.00;99819.50;5006950;28;20047;-78
2023/11/20 00:24:13;;;;;;;0.70;0.10;;;;;;;10.73;100.00;99824.59;5001470;28;20061;-79
2023/11/20 00:26:39;;;;;;;0.10;0.10;;;;;;;10.68;100.00;99810.75;5009837;28;20046;-80
2023/11/20 00:29:05;;;;;;;0.63;0.10;;;;;;;10.70;100.00;99816.78;4996116;28;20524;-80
2023/11/20 00:31:34;;;;;;;0.10;0.10;;;;;;;10.69;100.00;99817.69;4996282;28;20049;-85
2023/11/20 00:34:01;;;;;;;0.17;0.17;;;;;;;10.73;100.00;99811.50;4981276;28;20053;-84
2023/11/20 00:36:28;;;;;;;0.10;0.10;;;;;;;10.75;100.00;99797.50;5001562;28;20120;-79
2023/11/20 00:38:55;;;;;;;0.47;0.13;;;;;;;10.82;100.00;99807.78;4997392;28;20708;-81
2023/11/20 00:41:22;;;;;;;0.32;0.10;;;;;;;10.82;100.00;99811.28;5000047;28;20398;-79
2023/11/20 00:43:49;;;;;;;0.32;0.10;;;;;;;10.82;100.00;99797.31;4987567;28;20042;-79
2023/11/20 00:46:15;;;;;;;0.50;0.20;;;;;;;10.86;100.00;99801.59;4996784;28;20070;-81
2023/11/20 00:48:43;;;;;;;0.13;0.13;;;;;;;10.87;100.00;99800.69;5007451;28;20360;-80
2023/11/20 00:51:11;;;;;;;0.55;0.28;;;;;;;10.89;100.00;99812.84;5010108;28;20050;-80
2023/11/20 00:53:37;;;;;;;0.20;0.20;;;;;;;10.93;100.00;99806.63;4978976;28;20069;-80
2023/11/20 00:56:04;;;;;;;0.15;0.15;;;;;;;11.01;100.00;99814.31;4996278;28;20038;-80
2023/11/20 00:58:31;;;;;;;2.38;0.30;;;;;;;10.97;100.00;99810.03;4989067;28;20053;-79
2023/11/20 01:00:58;;;;;;;1.25;0.28;;;;;;;11.04;100.00;99816.00;4997398;28;20100;-79
2023/11/20 01:03:25;;;;;;;0.60;0.60;;;;;;;11.02;100.00;99812.56;4984383;28;20602;-78
2023/11/20 01:06:00;;;;;;;0.73;0.30;;;;;;;11.02;100.00;99815.19;5010383;28;20456;-79
2023/11/20 01:08:26;;;;;;;0.50;0.32;;;;;;;11.00;100.00;99812.63;4995930;28;20057;-82
2023/11/20 01:10:58;;;;;;;0.40;0.30;;;;;;;11.08;100.00;99818.50;4996566;28;20050;-81
2023/11/20 01:13:25;;;;;;;0.73;0.30;;;;;;;11.04;100.00;99813.38;5007606;28;20130;-79
2023/11/20 01:15:55;;;;;;;0.25;0.20;;;;;;;11.09;100.00;99812.38;4994049;28;20167;-83
2023/11/20 01:18:22;;;;;;;1.23;0.25;;;;;;;11.08;100.00;99808.03;4999957;28;20045;-83
2023/11/20 01:20:49;;;;;;;0.90;0.47;;;;;;;11.09;100.00;99809.75;4980661;28;20111;-79
2023/11/20 01:23:16;;;;;;;1.35;0.55;;;;;;;11.13;100.00;99805.28;4982258;28;20049;-80
2023/11/20 01:25:42;;;;;;;0.45;0.38;;;;;;;11.11;100.00;99800.97;4979779;28;20120;-82
2023/11/20 01:28:09;;;;;;;0.30;0.30;;;;;;;11.12;100.00;99808.84;5005588;28;20053;-79
2023/11/20 01:30:35;;;;;;;0.40;0.30;;;;;;;11.07;100.00;99808.09;4978595;28;20141;-83
2023/11/20 01:33:03;;;;;;;0.20;0.20;;;;;;;11.07;100.00;99810.69;4981112;28;20055;-79
2023/11/20 01:35:30;;;;;;;1.35;0.35;;;;;;;11.13;100.00;99813.16;4998491;28;20080;-82
2023/11/20 01:37:56;;;;;;;1.10;0.20;;;;;;;11.09;100.00;99814.13;4994007;28;20103;-81
2023/11/20 01:40:23;;;;;;;2.58;0.75;;;;;;;11.03;100.00;99807.28;4994833;28;20041;-78
2023/11/20 01:42:49;;;;;;;0.30;0.30;;;;;;;11.03;100.00;99815.16;4994958;28;20053;-80
2023/11/20 01:45:16;;;;;;;0.30;0.30;;;;;;;11.05;100.00;99807.25;4993245;28;20055;-82
2023/11/20 01:47:43;;;;;;;1.38;0.50;;;;;;;11.04;100.00;99806.41;4979459;28;20055;-80
2023/11/20 01:50:12;;;;;;;0.40;0.28;;;;;;;11.03;100.00;99809.03;4980929;28;20188;-80
2023/11/20 01:52:49;;;;;;;1.23;0.40;;;;;;;11.02;100.00;99805.56;5012956;28;20048;-79
2023/11/20 01:55:17;;;;;;;0.30;0.30;;;;;;;11.05;100.00;99807.25;4982365;28;20417;-81
2023/11/20 01:57:47;;;;;;;0.60;0.20;;;;;;;11.08;100.00;99813.28;4999910;28;20493;-80
2023/11/20 02:00:17;;;;;;;1.73;0.38;;;;;;;11.13;100.00;99809.69;4993633;28;20353;-78
2023/11/20 02:02:44;;;;;;;0.68;0.25;;;;;;;11.11;100.00;99803.59;5011981;28;20647;-78
2023/11/20 02:05:11;;;;;;;1.20;0.45;;;;;;;11.16;100.00;99809.59;5000301;28;20129;-80
2023/11/20 02:07:41;;;;;;;3.63;0.40;;;;;;;11.18;100.00;99800.78;4998451;28;20509;-80
2023/11/20 02:10:09;;;;;;;0.35;0.35;;;;;;;11.18;100.00;99798.19;4997709;28;20614;-80
2023/11/20 02:12:37;;;;;;;0.80;0.13;;;;;;;11.15;100.00;99792.19;4997824;28;21406;-80
2023/11/20 02:15:06;;;;;;;0.22;0.22;;;;;;;11.19;100.00;99799.91;4996694;28;20111;-81
2023/11/20 02:17:33;;;;;;;0.32;0.32;;;;;;;11.21;100.00;99800.75;5012397;28;20046;-81
2023/11/20 02:19:59;;;;;;;0.30;0.20;;;;;;;11.22;100.00;99807.72;5006441;28;20591;-83
2023/11/20 02:22:26;;;;;;;0.35;0.25;;;;;;;11.25;100.00;99802.38;4988909;28;20045;-82
2023/11/20 02:24:53;;;;;;;0.38;0.38;;;;;;;11.25;100.00;99805.00;5006293;28;20067;-82
2023/11/20 02:27:50;;;;;;;4.47;0.47;;;;;;;11.20;100.00;99799.00;4994846;28;20051;-80
2023/11/20 02:30:17;;;;;;;0.80;0.68;;;;;;;11.23;100.00;99798.06;5007433;28;20132;-81
2023/11/20 02:32:44;;;;;;;0.32;0.22;;;;;;;11.20;100.00;99795.53;4992499;28;20081;-81
2023/11/20 02:35:18;;;;;;;1.13;0.20;;;;;;;11.21;100.00;99795.50;4984206;28;20135;-80
2023/11/20 02:37:46;;;;;;;1.48;0.60;;;;;;;11.19;100.00;99789.44;5013927;28;20049;-81
2023/11/20 02:40:15;;;;;;;0.30;0.30;;;;;;;11.20;100.00;99790.31;5011929;28;20045;-80
2023/11/20 02:42:47;;;;;;;1.55;0.38;;;;;;;11.20;100.00;99785.91;4978077;28;20071;-79
2023/11/20 02:45:14;;;;;;;1.92;0.30;;;;;;;11.23;100.00;99784.97;4982461;28;20060;-81
2023/11/20 02:47:41;;;;;;;0.22;0.22;;;;;;;11.18;100.00;99771.97;4998044;28;20081;-80
2023/11/20 02:50:08;;;;;;;1.65;0.22;;;;;;;11.26;100.00;99787.50;4994974;28;20516;-83
2023/11/20 02:52:34;;;;;;;0.20;0.20;;;;;;;11.25;100.00;99788.41;5009368;28;20052;-83
2023/11/20 02:55:01;;;;;;;0.73;0.20;;;;;;;11.19;100.00;99786.81;5012472;28;20037;-83
2023/11/20 02:57:28;;;;;;;2.83;1.38;;;;;;;11.16;100.00;99791.25;4995983;28;20404;-78
2023/11/20 02:59:54;;;;;;;0.30;0.20;;;;;;;11.16;100.00;99794.75;5010605;28;20091;-80
2023/11/20 03:02:21;;;;;;;0.95;0.40;;;;;;;11.13;100.00;99792.19;5013371;28;20042;-80
2023/11/20 03:04:55;;;;;;;0.95;0.40;;;;;;;11.06;100.00;99788.88;4996861;28;20103;-81
2023/11/20 03:07:22;;;;;;;0.30;0.30;;;;;;;11.03;100.00;99791.56;5012531;28;20053;-80
2023/11/20 03:09:49;;;;;;;0.73;0.15;;;;;;;11.06;100.00;99794.09;5000550;28;20686;-80
2023/11/20 03:12:16;;;;;;;3.30;0.50;;;;;;;11.06;100.00;99794.09;5011576;28;20493;-83
2023/11/20 03:14:42;;;;;;;0.50;0.43;;;;;;;11.06;100.00;99796.72;5006349;28;20046;-81
2023/11/20 03:17:11;;;;;;;0.20;0.17;;;;;;;11.06;100.00;99788.03;5000718;28;20596;-84
2023/11/20 03:19:38;;;;;;;0.30;0.22;;;;;;;11.07;100.00;99784.50;4999714;28;20132;-80
2023/11/20 03:22:05;;;;;;;0.68;0.30;;;;;;;11.08;100.00;99800.19;4999627;28;20067;-80
2023/11/20 03:24:32;;;;;;;2.38;0.38;;;;;;;11.09;100.00;99799.28;4999630;28;20054;-83
2023/11/20 03:26:58;;;;;;;0.30;0.30;;;;;;;11.09;100.00;99798.41;4982633;28;20049;-84
2023/11/20 03:29:25;;;;;;;0.30;0.30;;;;;;;11.07;100.00;99801.06;4997235;28;20092;-79
2023/11/20 03:31:51;;;;;;;2.45;0.35;;;;;;;11.04;100.00;99808.13;4989468;28;20932;-80
2023/11/20 03:34:18;;;;;;;1.15;0.30;;;;;;;11.07;100.00;99797.59;5014160;28;20125;-82
2023/11/20 03:36:44;;;;;;;1.23;0.85;;;;;;;11.00;100.00;99793.41;4986177;28;20038;-81
2023/11/20 03:39:11;;;;;;;0.63;0.20;;;;;;;10.96;100.00;99805.69;4984764;28;20047;-79
2023/11/20 03:41:38;;;;;;;0.95;0.28;;;;;;;10.96;100.00;99810.94;4998477;28;20069;-81
2023/11/20 03:44:05;;;;;;;0.20;0.20;;;;;;;10.98;100.00;99809.16;4988711;28;20065;-83
2023/11/20 03:46:31;;;;;;;0.20;0.20;;;;;;;11.03;100.00;99811.66;4993928;28;20065;-81
2023/11/20 03:49:00;;;;;;;0.17;0.17;;;;;;;10.98;100.00;99797.84;4980619;28;20033;-80
2023/11/20 03:51:28;;;;;;;0.85;0.25;;;;;;;10.98;100.00;99809.16;4982540;28;20978;-80
2023/11/20 03:53:54;;;;;;;2.42;0.10;;;;;;;10.99;100.00;99799.53;5000071;28;20045;-82
2023/11/20 03:56:21;;;;;;;0.45;0.45;;;;;;;11.03;100.00;99807.28;5003545;28;20663;-78
2023/11/20 03:58:47;;;;;;;1.75;0.30;;;;;;;10.98;100.00;99808.31;5006892;28;20041;-84
2023/11/20 04:01:14;;;;;;;0.40;0.30;;;;;;;10.98;100.00;99801.31;5016168;28;20696;-81
2023/11/20 04:03:42;;;;;;;0.10;0.10;;;;;;;10.93;100.00;99809.25;5000764;28;20128;-79
2023/11/20 04:06:08;;;;;;;0.73;0.17;;;;;;;10.94;100.00;99815.38;4990543;28;20049;-79
2023/11/20 04:08:35;;;;;;;0.20;0.20;;;;;;;10.94;100.00;99807.50;5019112;28;20127;-81
2023/11/20 04:11:04;;;;;;;0.85;0.20;;;;;;;10.98;100.00;99813.53;4988982;28;21005;-79
2023/11/20 04:13:31;;;;;;;1.20;0.10;;;;;;;11.02;100.00;99810.81;4984819;28;20759;-81
2023/11/20 04:15:58;;;;;;;0.10;0.10;;;;;;;10.98;100.00;99810.94;4999592;28;20049;-79
2023/11/20 04:18:25;;;;;;;0.10;0.10;;;;;;;11.01;100.00;99809.06;5001940;28;20128;-79
2023/11/20 04:20:51;;;;;;;0.98;0.30;;;;;;;11.04;100.00;99813.38;5001620;28;20588;-77
2023/11/20 04:23:18;;;;;;;1.27;0.22;;;;;;;11.06;100.00;99807.19;5013835;28;20042;-77
2023/11/20 04:25:45;;;;;;;1.15;0.25;;;;;;;11.07;100.00;99808.09;5016342;28;20041;-79
2023/11/20 04:28:12;;;;;;;0.20;0.20;;;;;;;11.01;100.00;99811.69;4996084;28;20053;-80
2023/11/20 04:30:39;;;;;;;0.93;0.20;;;;;;;10.99;100.00;99808.25;4997151;28;20038;-80
2023/11/20 04:33:05;;;;;;;0.75;0.30;;;;;;;10.98;100.00;99801.31;4997248;28;20041;-83
2023/11/20 04:35:32;;;;;;;0.90;0.40;;;;;;;10.93;100.00;99804.00;4997059;28;20040;-82
2023/11/20 04:37:58;;;;;;;0.57;0.10;;;;;;;11.01;100.00;99813.47;5001200;28;20171;-82
2023/11/20 04:40:25;;;;;;;0.35;0.35;;;;;;;11.00;100.00;99801.25;4995888;28;20046;-81
2023/11/20 04:42:51;;;;;;;1.38;0.40;;;;;;;11.05;100.00;99813.34;5000618;28;20123;-79
2023/11/20 04:45:18;;;;;;;0.10;0.10;;;;;;;11.00;100.00;99804.75;4998085;28;20054;-79
2023/11/20 04:47:44;;;;;;;1.30;0.30;;;;;;;11.01;100.00;99809.06;5008885;28;20049;-81
2023/11/20 04:50:11;;;;;;;5.55;0.77;;;;;;;10.99;100.00;99813.50;5003966;28;20508;-80
2023/11/20 04:52:38;;;;;;;0.80;0.60;;;;;;;10.96;100.00;99807.47;5004290;28;20478;-80
2023/11/20 04:55:06;;;;;;;1.15;0.30;;;;;;;10.95;100.00;99806.63;5000632;28;20056;-80
2023/11/20 04:57:33;;;;;;;0.30;0.20;;;;;;;10.94;100.00;99810.13;5003142;28;20128;-82
2023/11/20 05:00:00;;;;;;;0.20;0.10;;;;;;;10.92;100.00;99811.91;5007641;28;20129;-82
2023/11/20 05:02:28;;;;;;;3.60;0.55;;;;;;;10.89;100.00;99823.31;5005115;28;20067;-80
2023/11/20 05:04:56;;;;;;;0.47;0.20;;;;;;;10.95;100.00;99816.22;4985896;28;20065;-78
2023/11/20 05:07:22;;;;;;;0.95;0.20;;;;;;;10.89;100.00;99812.00;4999844;28;20156;-78
2023/11/20 05:09:54;;;;;;;1.85;0.20;;;;;;;10.93;100.00;99811.88;5012627;28;20037;-79
2023/11/20 05:12:21;;;;;;;0.50;0.13;;;;;;;10.96;100.00;99810.94;5000263;28;20058;-80
2023/11/20 05:14:47;;;;;;;0.43;0.43;;;;;;;10.95;100.00;99817.09;4999913;28;20485;-80
2023/11/20 05:17:17;;;;;;;0.90;0.43;;;;;;;10.90;100.00;99808.50;5011092;28;20794;-78
2023/11/20 05:19:44;;;;;;;4.05;1.10;;;;;;;10.90;100.00;99829.44;4996185;28;20049;-83
2023/11/20 05:22:13;;;;;;;1.92;0.30;;;;;;;10.86;100.00;99819.91;5012621;28;20045;-83
2023/11/20 05:24:40;;;;;;;1.73;0.63;;;;;;;10.90;100.00;99818.97;4999642;28;20057;-78
2023/11/20 05:27:09;;;;;;;1.20;1.00;;;;;;;10.92;100.00;99818.03;4999434;28;20247;-78
2023/11/20 05:29:39;;;;;;;0.88;0.85;;;;;;;10.93;100.00;99809.25;5007595;28;20795;-79
2023/11/20 05:32:07;;;;;;;0.75;0.40;;;;;;;10.99;100.00;99823.97;4998570;28;20945;-78
2023/11/20 05:34:34;;;;;;;0.22;0.20;;;;;;;11.06;100.00;99820.28;5000877;28;20041;-79
2023/11/20 05:37:01;;;;;;;0.32;0.20;;;;;;;11.06;100.00;99817.69;4999340;28;20053;-78
2023/11/20 05:39:31;;;;;;;1.67;0.20;;;;;;;11.09;100.00;99822.88;4997887;28;20061;-82
2023/11/20 05:42:00;;;;;;;0.88;0.40;;;;;;;11.05;100.00;99822.97;5004353;28;20045;-78
2023/11/20 05:44:32;;;;;;;2.17;0.63;;;;;;;11.05;100.00;99823.81;5017161;28;20053;-81
2023/11/20 05:46:59;;;;;;;2.05;0.90;;;;;;;11.09;100.00;99833.34;4999061;28;20037;-78
2023/11/20 05:49:26;;;;;;;0.52;0.52;;;;;;;11.08;100.00;99836.84;4990648;28;20141;-78
2023/11/20 05:51:53;;;;;;;0.30;0.20;;;;;;;11.07;100.00;99824.66;5002315;28;20064;-79
2023/11/20 05:54:20;;;;;;;0.65;0.10;;;;;;;11.09;100.00;99840.31;4997624;28;20041;-78
2023/11/20 05:56:47;;;;;;;0.30;0.20;;;;;;;11.06;100.00;99832.53;5016252;28;20728;-80
2023/11/20 05:59:14;;;;;;;0.95;0.20;;;;;;;11.03;100.00;99837.84;4998712;28;20045;-81
2023/11/20 06:01:42;;;;;;;0.65;0.40;;;;;;;11.04;100.00;99844.81;5003409;28;20048;-78
2023/11/20 06:04:09;;;;;;;0.13;0.10;;;;;;;10.97;100.00;99835.38;5000361;28;20052;-82
2023/11/20 06:06:37;;;;;;;2.55;0.30;;;;;;;10.96;100.00;99844.97;5014282;28;20140;-80
2023/11/20 06:09:05;;;;;;;0.80;0.32;;;;;;;10.95;100.00;99848.53;5014502;28;20764;-81
2023/11/20 06:11:32;;;;;;;0.45;0.30;;;;;;;10.99;100.00;99844.94;5016640;28;20045;-81
2023/11/20 06:14:00;;;;;;;0.20;0.20;;;;;;;10.98;100.00;99847.59;4996886;28;20064;-82
2023/11/20 06:16:26;;;;;;;6.13;0.22;;;;;;;10.93;100.00;99845.06;5005598;28;20046;-80
2023/11/20 06:18:53;;;;;;;0.30;0.20;;;;;;;10.98;100.00;99845.81;4999079;28;20052;-81
2023/11/20 06:21:20;;;;;;;2.17;0.30;;;;;;;10.96;100.00;99858.06;5016847;28;20120;-81
2023/11/20 06:23:47;;;;;;;1.95;0.40;;;;;;;10.92;100.00;99859.06;5004283;28;20064;-79
2023/11/20 06:26:14;;;;;;;0.57;0.57;;;;;;;10.94;100.00;99859.88;5000990;28;20089;-80
2023/11/20 06:28:42;;;;;;;1.38;0.50;;;;;;;10.88;100.00;99862.63;5001420;28;20044;-77
2023/11/20 06:31:11;;;;;;;1.33;0.43;;;;;;;10.86;100.00;99870.53;4999996;28;20697;-78
2023/11/20 06:33:38;;;;;;;2.85;0.52;;;;;;;10.80;100.00;99873.28;5001776;28;20139;-78
2023/11/20 06:36:06;;;;;;;3.05;0.82;;;;;;;10.81;100.00;99871.50;5018962;28;20040;-79
2023/11/20 06:38:35;;;;;;;1.48;0.50;;;;;;;10.82;100.00;99871.50;5020081;28;20041;-80
2023/11/20 06:41:02;;;;;;;1.73;0.50;;;;;;;10.78;100.00;99882.06;5013867;28;20711;-79
2023/11/20 06:43:30;;;;;;;3.45;0.88;;;;;;;10.69;100.00;99888.34;4986723;28;20053;-82
2023/11/20 06:45:59;;;;;;;1.65;0.35;;;;;;;10.63;100.00;99898.97;5006919;28;20049;-79
2023/11/20 06:48:26;;;;;;;1.02;0.95;;;;;;;10.62;100.00;99889.41;4996921;28;20041;-78
2023/11/20 06:50:53;;;;;;;2.85;0.65;;;;;;;10.57;100.00;99894.72;4990382;28;20052;-79
2023/11/20 06:53:21;;;;;;;2.75;0.65;;;;;;;10.54;100.00;99894.78;5000015;28;20539;-82
2023/11/20 06:55:51;;;;;;;1.30;0.82;;;;;;;10.54;100.00;99887.78;5013297;28;20038;-79
2023/11/20 06:58:17;;;;;;;1.40;1.13;;;;;;;10.56;100.00;99904.34;5002328;28;20053;-78
2023/11/20 07:00:44;;;;;;;3.70;1.05;;;;;;;10.57;100.00;99902.56;5002876;28;20071;-80
2023/11/20 07:03:10;;;;;;;2.22;0.52;;;;;;;10.57;100.00;99892.09;4986867;28;20107;-80
2023/11/20 07:05:37;;;;;;;1.25;0.80;;;;;;;10.59;100.00;99906.88;4998638;28;20045;-80
2023/11/20 07:08:06;;;;;;;1.20;0.60;;;;;;;10.57;100.00;99913.91;4979846;28;20073;-80
2023/11/20 07:10:33;;;;;;;1.95;0.50;;;;;;;10.61;100.00;99914.69;4998190;28;20129;-80
2023/11/20 07:13:00;;;;;;;1.08;0.40;;;;;;;10.63;100.00;99912.91;5004532;28;20073;-80
2023/11/20 07:15:26;;;;;;;2.17;0.43;;;;;;;10.63;100.00;99923.38;4997735;28;20727;-78
2023/11/20 07:17:53;;;;;;;1.35;0.68;;;;;;;10.68;100.00;99921.53;5013668;28;20053;-80
2023/11/20 07:20:20;;;;;;;1.15;0.73;;;;;;;10.69;100.00;99919.78;5015575;28;20125;-78
2023/11/20 07:22:48;;;;;;;0.55;0.50;;;;;;;10.76;100.00;99922.22;4998309;28;20072;-80
2023/11/20 07:25:15;;;;;;;2.08;0.50;;;;;;;10.74;100.00;99926.66;4997734;28;20485;-80
2023/11/20 07:27:41;;;;;;;1.52;0.55;;;;;;;10.73;100.00;99934.53;4999653;28;20400;-80
2023/11/20 07:30:09;;;;;;;2.60;0.52;;;;;;;10.71;100.00;99926.69;5020049;28;20045;-81
2023/11/20 07:32:39;;;;;;;3.13;0.70;;;;;;;10.68;100.00;99931.16;5018949;28;20433;-81
2023/11/20 07:35:12;;;;;;;1.00;0.50;;;;;;;10.72;100.00;99935.44;5007814;28;20049;-79
2023/11/20 07:37:39;;;;;;;2.05;0.77;;;;;;;10.68;100.00;99945.09;4990909;28;20245;-80
2023/11/20 07:40:11;;;;;;;0.93;0.70;;;;;;;10.71;100.00;99942.41;4992264;28;20081;-79
2023/11/20 07:42:39;;;;;;;1.20;1.10;;;;;;;10.75;100.00;99948.44;5015999;28;20038;-80
2023/11/20 07:45:08;;;;;;;1.30;0.50;;;;;;;10.71;100.00;99945.03;5005627;28;20046;-80
2023/11/20 07:47:34;;;;;;;0.90;0.57;;;;;;;10.77;100.00;99946.66;5010127;28;20041;-80
2023/11/20 07:50:01;;;;;;;1.33;0.50;;;;;;;10.79;100.00;99941.41;5019125;28;20034;-79
2023/11/20 07:52:28;;;;;;;1.63;0.57;;;;;;;10.83;100.00;99948.28;4986924;28;20048;-79
2023/11/20 07:54:55;;;;;;;2.30;0.35;;;;;;;10.81;100.00;99950.06;4992846;28;20045;-83
2023/11/20 07:57:28;;;;;;;0.60;0.38;;;;;;;10.81;100.00;99952.69;4991393;28;20038;-80
2023/11/20 07:59:55;;;;;;;0.75;0.40;;;;;;;10.83;100.00;99951.75;5006968;28;20187;-81
2023/11/20 08:02:24;;;;;;;2.17;0.55;;;;;;;10.83;100.00;99946.50;4986076;28;20709;-81
2023/11/20 08:04:51;;;;;;;4.38;0.68;;;;;;;10.87;100.00;99949.94;5011880;28;20129;-81
2023/11/20 08:07:17;;;;;;;3.17;0.50;;;;;;;10.83;100.00;99943.91;4998951;28;20120;-79
2023/11/20 08:09:44;;;;;;;0.40;0.40;;;;;;;10.85;100.00;99949.97;5016307;28;20088;-79
2023/11/20 08:12:11;;;;;;;2.72;0.98;;;;;;;10.83;100.00;99949.13;5003923;28;20053;-79
2023/11/20 08:14:37;;;;;;;2.15;0.40;;;;;;;10.79;100.00;99957.94;4999955;28;20046;-79
2023/11/20 08:17:04;;;;;;;1.35;0.70;;;;;;;10.78;100.00;99958.88;4997992;28;20033;-80
2023/11/20 08:19:31;;;;;;;2.67;0.80;;;;;;;10.76;100.00;99964.13;4996788;28;20042;-79
2023/11/20 08:21:59;;;;;;;1.30;0.98;;;;;;;10.77;100.00;99972.84;5001882;28;20057;-79
2023/11/20 08:24:26;;;;;;;1.70;0.57;;;;;;;10.73;100.00;99966.81;5008821;28;20196;-79
2023/11/20 08:26:53;;;;;;;1.10;0.60;;;;;;;10.74;100.00;99978.13;4983538;28;20537;-78
2023/11/20 08:29:20;;;;;;;2.38;1.25;;;;;;;10.60;100.00;99981.03;5008637;28;20037;-80
2023/11/20 08:31:47;;;;;;;2.55;1.55;;;;;;;10.48;100.00;99982.16;4982136;28;21018;-83
2023/11/20 08:34:14;;;;;;;1.52;0.63;;;;;;;10.47;100.00;99990.00;4990006;28;20588;-78
2023/11/20 08:36:43;;;;;;;1.70;0.82;;;;;;;10.42;100.00;99990.09;4993701;28;20045;-78
2023/11/20 08:39:12;;;;;;;1.17;0.70;;;;;;;10.37;100.00;99990.19;4984465;28;20049;-79
2023/11/20 08:41:42;;;;;;;1.25;0.60;;;;;;;10.40;100.00;99991.88;4998402;28;20405;-80
2023/11/20 08:44:09;;;;;;;0.68;0.68;;;;;;;10.35;100.00;99996.31;5014625;28;20041;-80
2023/11/20 08:46:36;;;;;;;3.38;0.75;;;;;;;10.36;100.00;99998.91;5017872;28;20041;-79
2023/11/20 08:49:06;;;;;;;2.10;0.63;;;;;;;10.26;100.00;100010.44;5022148;28;20056;-80
2023/11/20 08:51:38;;;;;;;3.20;1.00;;;;;;;10.25;100.00;100000.84;5002170;28;20652;-79
2023/11/20 08:54:05;;;;;;;2.35;0.65;;;;;;;10.25;100.00;100006.09;5004950;28;20080;-79
2023/11/20 08:56:32;;;;;;;2.05;1.02;;;;;;;10.25;100.00;99991.25;5008237;28;20034;-80
2023/11/20 08:58:59;;;;;;;2.67;0.98;;;;;;;10.20;100.00;100000.94;5005472;28;20374;-79
2023/11/20 09:01:34;;;;;;;4.50;1.75;;;;;;;10.27;100.00;99996.44;5005092;28;20069;-83
2023/11/20 09:04:05;;;;;;;5.53;1.23;;;;;;;10.22;100.00;99996.53;4998641;28;20123;-80
2023/11/20 09:06:34;;;;;;;2.10;1.25;;;;;;;10.27;100.00;99988.59;5004637;28;20077;-82
2023/11/20 09:09:00;;;;;;;3.03;1.42;;;;;;;10.31;100.00;99989.41;5018488;28;20121;-80
2023/11/20 09:11:29;;;;;;;1.35;1.08;;;;;;;10.32;100.00;99984.13;5021562;28;20080;-79
2023/11/20 09:13:55;;;;;;;2.50;1.00;;;;;;;10.40;100.00;99992.75;4998370;28;20046;-83
2023/11/20 09:16:22;;;;;;;1.75;1.02;;;;;;;10.43;100.00;99971.75;5004368;28;20033;-80
2023/11/20 09:18:49;;;;;;;3.22;1.20;;;;;;;10.51;100.00;99979.47;5024633;28;20048;-80
2023/11/20 09:21:16;;;;;;;10.75;2.28;;;;;;;10.55;100.00;99986.34;4989101;28;20080;-80
2023/11/20 09:23:49;;;;;;;3.75;1.55;;;;;;;10.57;100.00;99989.81;5002767;28;20111;-79
2023/11/20 09:26:16;;;;;;;1.85;1.55;;;;;;;10.58;100.00;99988.91;5000719;28;20045;-80
2023/11/20 09:28:43;;;;;;;2.40;1.08;;;;;;;10.66;100.00;99982.66;5001004;28;20038;-80
2023/11/20 09:31:20;;;;;;;5.88;1.23;;;;;;;10.73;100.00;99992.97;5022619;28;20050;-82
2023/11/20 09:33:48;;;;;;;1.73;1.13;;;;;;;10.73;100.00;99995.59;5004739;28;20069;-79
2023/11/20 09:36:15;;;;;;;8.02;1.73;;;;;;;10.70;100.00;99992.19;5001585;28;20045;-80
2023/11/20 09:38:43;;;;;;;10.00;2.70;;;;;;;10.71;100.00;99981.66;4998829;28;20053;-80
2023/11/20 09:41:11;;;;;;;5.50;2.45;;;;;;;10.79;100.00;99999.84;4998596;28;20053;-78
2023/11/20 09:43:38;;;;;;;4.50;2.53;;;;;;;10.74;100.00;100001.69;4991441;28;20083;-79
2023/11/20 09:46:07;;;;;;;10.25;2.25;;;;;;;10.83;100.00;100003.25;4978582;28;20073;-81
2023/11/20 09:48:36;;;;;;;9.25;2.20;;;;;;;10.79;100.00;100002.47;4985408;28;20069;-79
2023/11/20 09:51:05;;;;;;;5.63;2.55;;;;;;;10.86;100.00;99987.47;5005509;28;20046;-81
2023/11/20 09:53:34;;;;;;;9.18;2.60;;;;;;;10.90;100.00;99999.63;5012825;28;20050;-80
2023/11/20 09:56:03;;;;;;;5.80;1.95;;;;;;;10.98;100.00;99986.38;5016448;28;20156;-81
2023/11/20 09:58:31;;;;;;;7.40;2.55;;;;;;;11.04;100.00;99996.72;4998271;28;20038;-80
2023/11/20 10:01:07;;;;;;;8.85;2.25;;;;;;;11.10;100.00;100001.81;5019686;28;20120;-80
2023/11/20 10:03:39;;;;;;;7.93;2.72;;;;;;;11.17;100.00;99997.31;4965325;28;20133;-80
2023/11/20 10:06:10;;;;;;;10.32;3.53;;;;;;;11.11;100.00;99992.19;4984561;28;20061;-79
2023/11/20 10:08:41;;;;;;;8.75;2.47;;;;;;;11.18;100.00;99985.94;5003909;28;20045;-79
2023/11/20 10:11:18;;;;;;;7.00;2.53;;;;;;;11.20;100.00;99978.91;5002199;23;20070;-80
2023/11/20 10:13:59;;;;;;;13.18;2.70;;;;;;;11.29;100.00;99981.34;5010467;28;20048;-82
2023/11/20 10:16:29;;;;;;;9.25;3.47;;;;;;;11.30;100.00;99993.50;5006335;28;20106;-81
2023/11/20 10:18:57;;;;;;;9.23;2.83;;;;;;;11.35;100.00;99986.41;5024430;28;20048;-83
2023/11/20 10:21:30;;;;;;;7.03;2.65;;;;;;;11.39;100.00;99984.59;4988019;28;20045;-81
2023/11/20 10:24:01;;;;;;;13.93;2.58;;;;;;;11.51;100.00;99989.56;4999367;28;20053;-80
2023/11/20 10:26:27;;;;;;;13.70;2.58;;;;;;;11.45;100.00;99992.31;5005823;28;20045;-83
2023/11/20 10:28:59;;;;;;;10.93;2.80;;;;;;;11.53;100.00;99989.50;5012625;28;20037;-82
2023/11/20 10:31:32;;;;;;;11.82;3.28;;;;;;;11.52;100.00;100001.75;5025813;28;20049;-82
2023/11/20 10:34:06;;;;;;;8.32;2.42;;;;;;;11.44;100.00;99987.13;5004476;28;20079;-84
2023/11/20 10:36:34;;;;;;;5.82;2.08;;;;;;;11.37;100.00;99989.88;5023000;28;20032;-79
2023/11/20 10:39:02;;;;;;;7.03;2.50;;;;;;;11.34;100.00;99983.81;5006608;28;20041;-82
2023/11/20 10:41:31;;;;;;;7.78;2.28;;;;;;;11.34;100.00;99987.34;5006496;28;20053;-83
2023/11/20 10:44:01;;;;;;;8.15;2.10;;;;;;;11.41;100.00;99982.81;5009918;28;20041;-82
2023/11/20 10:46:28;;;;;;;4.47;1.92;;;;;;;11.41;100.00;99981.03;5024711;28;20049;-83
2023/11/20 10:48:56;;;;;;;8.52;1.77;;;;;;;11.51;100.00;99983.44;5016906;28;20041;-82
2023/11/20 10:51:25;;;;;;;4.70;1.92;;;;;;;11.61;100.00;99982.31;5018087;28;21344;-77
2023/11/20 10:54:01;;;;;;;6.18;2.25;;;;;;;11.63;100.00;99974.41;5012735;28;20086;-84
2023/11/20 10:56:34;;;;;;;12.10;2.55;;;;;;;11.56;100.00;99979.81;5012685;28;20104;-84
2023/11/20 10:59:02;;;;;;;7.72;2.15;;;;;;;11.62;100.00;99984.06;5009085;28;20049;-85
2023/11/20 11:01:29;;;;;;;10.10;2.70;;;;;;;11.50;100.00;99969.47;5007249;28;20060;-79
2023/11/20 11:03:59;;;;;;;2.28;1.50;;;;;;;11.28;100.00;99979.59;5010741;28;20044;-83
2023/11/20 11:06:30;;;;;;;5.45;1.80;;;;;;;11.31;100.00;99976.06;5026206;28;20056;-80
2023/11/20 11:09:00;;;;;;;3.92;1.65;;;;;;;11.22;100.00;99985.84;5022826;28;20477;-81
2023/11/20 11:11:30;;;;;;;2.67;1.33;;;;;;;11.03;100.00;99982.75;4994509;28;20057;-81
2023/11/20 11:13:57;;;;;;;8.50;1.88;;;;;;;11.02;100.00;99985.41;4991337;28;20049;-81
2023/11/20 11:16:39;;;;;;;4.70;1.90;;;;;;;10.95;100.00;99986.44;5011742;28;20037;-83
2023/11/20 11:19:14;;;;;;;5.68;1.75;;;;;;;10.83;100.00;99990.19;5001005;28;20052;-82
2023/11/20 11:21:57;;;;;;;7.70;2.95;;;;;;;10.70;100.00;99986.94;5018267;28;20106;-78
2023/11/20 11:24:25;;;;;;;5.75;2.63;;;;;;;10.70;100.00;99990.44;5010652;28;20481;-82
2023/11/20 11:27:20;;;;;;;3.28;1.65;;;;;;;10.64;100.00;99994.91;5013019;28;20124;-82
2023/11/20 11:29:53;;;;;;;9.52;2.35;;;;;;;10.56;100.00;99985.47;5008380;28;20378;-79